This is the latest recevied weather packets stored in our database for station/object N4OOJ-13. If no packets are shown the sender has not sent any weather packets the latest 10 day(s).
| Time | Temp. | Humidity | Pressure | Rain* | Wind** | Luminosity | Snow |
|---|---|---|---|---|---|---|---|
| 1787434228 | 23.89° C | 99% | 1014.8 hPa | 0.76 mm | - | - | - |
| 1787433622 | 23.89° C | 98% | 1014.7 hPa | 3.56 mm | - | - | - |
| 1787433017 | 25° C | 96% | 1014.5 hPa | 3.56 mm | - | - | - |
| 1787432435 | 26.11° C | 97% | 1014.3 hPa | 3.3 mm | - | - | - |
| 1787431830 | 25.56° C | 99% | 1013.8 hPa | 6.6 mm | - | - | - |
| 1787431223 | 25.56° C | 97% | 1014.1 hPa | 8.13 mm | - | - | - |
| 1787430618 | 25.56° C | 96% | 1014.7 hPa | 8.13 mm | - | - | - |
| 1787430019 | 26.11° C | 96% | 1014.7 hPa | 4.83 mm | - | - | - |
| 1787429419 | 26.11° C | 94% | 1014.8 hPa | 4.83 mm | - | - | - |
| 1787428819 | 27.22° C | 94% | 1015 hPa | 5.33 mm | - | - | - |
| 1787428233 | 28.33° C | 88% | 1015.4 hPa | 2.03 mm | - | - | - |
| 1787427628 | 28.89° C | 85% | 1015.2 hPa | 0.51 mm | - | - | - |
| 1787427023 | 29.44° C | 85% | 1015.3 hPa | 0.51 mm | - | - | - |
| 1787426416 | 31.11° C | 76% | 1015.3 hPa | 0.51 mm | - | - | - |
| 1787425816 | 35.56° C | 61% | 1015.2 hPa | 0.51 mm | - | - | - |
| 1787425229 | 35° C | 58% | 1015.3 hPa | 0 mm | - | - | - |
| 1787424628 | 36.67° C | 52% | 1015.4 hPa | 0 mm | - | - | - |
| 1787424023 | 36.11° C | 56% | 1015.4 hPa | 0 mm | - | - | - |
| 1787423416 | 36.67° C | 53% | 1015.5 hPa | 0 mm | - | - | - |
| 1787422816 | 36.11° C | 55% | 1015.6 hPa | 0 mm | - | - | - |
| 1787422229 | 35° C | 59% | 1015.8 hPa | 0 mm | - | - | - |
| 1787421627 | 36.11° C | 54% | 1015.9 hPa | 0 mm | - | - | - |
| 1787421022 | 36.11° C | 55% | 1016 hPa | 0 mm | - | - | - |
| 1787420421 | 35.56° C | 58% | 1016.1 hPa | 0 mm | - | - | - |
| 1787419816 | 35° C | 60% | 1016.3 hPa | 0 mm | - | - | - |
* Rain latest hour (hover to see other rain measurements)
** Current wind speed in m/s (hover to see current wind gust speed)